createdAt,value
2022-10-01T00:00:01.983Z,98347.16
2022-10-01T00:01:32.165Z,98345.73
2022-10-01T00:02:37.225Z,98344.27
2022-10-01T00:03:39.552Z,98343.52
2022-10-01T00:04:41.251Z,98340.88
2022-10-01T00:05:43.318Z,98338.28
2022-10-01T00:06:45.310Z,98337.59
2022-10-01T00:07:48.008Z,98334.95
2022-10-01T00:08:50.872Z,98335.32
2022-10-01T00:09:52.620Z,98337.20
2022-10-01T00:10:54.361Z,98336.83
2022-10-01T00:11:56.190Z,98343.36
2022-10-01T00:12:59.062Z,98343.42
2022-10-01T00:14:04.124Z,98346.66
2022-10-01T00:15:12.883Z,98348.81
2022-10-01T00:16:18.623Z,98350.27
2022-10-01T00:17:20.365Z,98350.81
2022-10-01T00:18:22.192Z,98353.46
2022-10-01T00:19:23.967Z,98356.38
2022-10-01T00:20:25.714Z,98357.18
2022-10-01T00:21:31.999Z,98353.68
2022-10-01T00:22:37.488Z,98354.87
2022-10-01T00:23:39.728Z,98356.02
2022-10-01T00:24:41.562Z,98359.41
2022-10-01T00:25:43.801Z,98360.27
2022-10-01T00:26:45.799Z,98367.98
2022-10-01T00:27:47.632Z,98365.73
2022-10-01T00:28:55.684Z,98369.60
2022-10-01T00:29:57.783Z,98364.77
2022-10-01T00:30:59.888Z,98366.76
2022-10-01T00:32:02.194Z,98367.67
2022-10-01T00:33:04.056Z,98372.89
2022-10-01T00:34:06.542Z,98371.70
2022-10-01T00:35:12.496Z,98374.40
2022-10-01T00:36:14.393Z,98376.51
2022-10-01T00:37:17.836Z,98371.92
2022-10-01T00:38:19.546Z,98370.84
2022-10-01T00:39:21.561Z,98374.30
2022-10-01T00:40:24.014Z,98372.63
2022-10-01T00:41:27.142Z,98370.30
2022-10-01T00:42:28.976Z,98368.31
2022-10-01T00:43:34.707Z,98369.29
2022-10-01T00:44:37.353Z,98372.08
2022-10-01T00:45:39.607Z,98370.08
2022-10-01T00:46:45.002Z,98372.94
2022-10-01T00:47:58.047Z,98370.95
2022-10-01T00:49:01.414Z,98371.21
2022-10-01T00:50:08.536Z,98369.54
2022-10-01T00:51:11.641Z,98370.13
2022-10-01T00:52:21.649Z,98369.60
2022-10-01T00:53:25.644Z,98365.07
2022-10-01T00:54:37.727Z,98365.05
2022-10-01T00:55:48.494Z,98364.30
2022-10-01T00:56:56.454Z,98365.75
2022-10-01T00:57:58.946Z,98366.41
2022-10-01T00:59:02.196Z,98366.35
2022-10-01T01:00:07.631Z,98363.65
2022-10-01T01:01:09.526Z,98364.06
2022-10-01T01:02:12.469Z,98362.77
2022-10-01T01:03:15.594Z,98360.46
2022-10-01T01:04:17.390Z,98362.57
2022-10-01T01:05:20.164Z,98358.48
2022-10-01T01:06:21.869Z,98362.42
2022-10-01T01:07:23.906Z,98361.54
2022-10-01T01:08:25.792Z,98362.35
2022-10-01T01:09:35.971Z,98364.02
2022-10-01T01:10:50.221Z,98363.97
2022-10-01T01:12:25.018Z,98361.86
2022-10-01T01:13:33.274Z,98359.77
2022-10-01T01:15:07.634Z,98359.71
2022-10-01T01:16:31.556Z,98353.88
2022-10-01T01:18:02.664Z,98349.89
2022-10-01T01:19:37.884Z,98348.70
2022-10-01T01:21:02.713Z,98340.48
2022-10-01T01:22:11.793Z,98335.04
2022-10-01T01:23:16.242Z,98330.88
2022-10-01T01:24:56.180Z,98327.91
2022-10-01T01:26:16.853Z,98331.48
2022-10-01T01:27:31.498Z,98332.08
2022-10-01T01:28:44.642Z,98332.45
2022-10-01T01:30:04.386Z,98335.84
2022-10-01T01:31:17.914Z,98338.71
2022-10-01T01:33:04.738Z,98339.56
2022-10-01T01:34:14.967Z,98337.10
2022-10-01T01:35:27.277Z,98335.24
2022-10-01T01:36:38.052Z,98329.64
2022-10-01T01:37:47.404Z,98327.60
2022-10-01T01:38:59.154Z,98326.36
2022-10-01T01:40:05.196Z,98322.70
2022-10-01T01:41:10.931Z,98318.83
2022-10-01T01:42:24.146Z,98318.98
2022-10-01T01:43:36.636Z,98319.58
2022-10-01T01:44:44.079Z,98317.47
2022-10-01T01:45:51.137Z,98317.26
2022-10-01T01:46:58.718Z,98321.52
2022-10-01T01:48:02.993Z,98320.02
2022-10-01T01:49:05.496Z,98318.73
2022-10-01T01:50:08.242Z,98313.09
2022-10-01T01:51:33.017Z,98311.96
2022-10-01T01:52:35.600Z,98309.21
2022-10-01T01:53:38.408Z,98305.33
2022-10-01T01:54:41.003Z,98305.02
2022-10-01T01:55:49.321Z,98303.68
2022-10-01T01:56:52.988Z,98302.02
2022-10-01T01:57:57.121Z,98308.59
2022-10-01T01:59:00.591Z,98310.76
2022-10-01T02:00:02.547Z,98310.05
2022-10-01T02:01:40.097Z,98314.96
2022-10-01T02:02:50.312Z,98321.65
2022-10-01T02:03:52.269Z,98326.71
2022-10-01T02:05:03.512Z,98326.56
2022-10-01T02:06:28.665Z,98325.48
2022-10-01T02:07:48.785Z,98325.31
2022-10-01T02:09:15.578Z,98331.41
2022-10-01T02:10:56.883Z,98330.81
2022-10-01T02:12:20.227Z,98327.59
2022-10-01T02:13:39.063Z,98325.11
2022-10-01T02:14:54.485Z,98328.50
2022-10-01T02:16:09.359Z,98324.90
2022-10-01T02:17:32.390Z,98323.33
2022-10-01T02:18:48.925Z,98319.71
2022-10-01T02:20:02.280Z,98319.27
2022-10-01T02:21:10.358Z,98320.02
2022-10-01T02:22:20.301Z,98321.05
2022-10-01T02:23:40.104Z,98323.00
2022-10-01T02:24:50.831Z,98317.50
2022-10-01T02:25:59.789Z,98312.59
2022-10-01T02:27:08.372Z,98318.04
2022-10-01T02:28:16.473Z,98311.13
2022-10-01T02:29:23.839Z,98317.27
2022-10-01T02:30:25.789Z,98320.30
2022-10-01T02:31:30.559Z,98319.86
2022-10-01T02:32:35.550Z,98326.24
2022-10-01T02:33:41.369Z,98323.81
2022-10-01T02:34:47.446Z,98326.34
2022-10-01T02:35:53.649Z,98328.73
2022-10-01T02:36:59.527Z,98329.21
2022-10-01T02:38:06.260Z,98327.60
2022-10-01T02:39:14.252Z,98328.84
2022-10-01T02:40:22.374Z,98329.27
2022-10-01T02:41:31.891Z,98326.90
2022-10-01T02:42:37.245Z,98327.39
2022-10-01T02:44:04.977Z,98328.75
2022-10-01T02:45:08.851Z,98327.13
2022-10-01T02:46:28.453Z,98322.70
2022-10-01T02:47:36.888Z,98321.20
2022-10-01T02:48:38.795Z,98318.33
2022-10-01T02:49:41.630Z,98320.81
2022-10-01T02:50:53.088Z,98323.06
2022-10-01T02:52:06.989Z,98322.05
2022-10-01T02:53:19.510Z,98322.10
2022-10-01T02:54:35.587Z,98324.05
2022-10-01T02:55:41.517Z,98326.05
2022-10-01T02:57:02.547Z,98332.58
2022-10-01T02:58:05.097Z,98331.83
2022-10-01T02:59:08.327Z,98334.73
2022-10-01T03:00:13.595Z,98336.52
2022-10-01T03:01:15.463Z,98336.24
2022-10-01T03:02:19.253Z,98337.81
2022-10-01T03:03:21.210Z,98337.52
2022-10-01T03:04:22.952Z,98336.46
2022-10-01T03:05:24.891Z,98337.81
2022-10-01T03:06:27.328Z,98336.46
2022-10-01T03:07:32.238Z,98329.30
2022-10-01T03:08:34.054Z,98329.89
2022-10-01T03:09:36.853Z,98326.06
2022-10-01T03:10:41.447Z,98323.68
2022-10-01T03:11:45.185Z,98324.12
2022-10-01T03:12:47.167Z,98320.61
2022-10-01T03:13:48.959Z,98317.16
2022-10-01T03:14:51.163Z,98315.81
2022-10-01T03:15:52.927Z,98316.46
2022-10-01T03:16:55.481Z,98316.84
2022-10-01T03:17:57.268Z,98316.04
2022-10-01T03:18:59.236Z,98316.13
2022-10-01T03:20:01.227Z,98314.41
2022-10-01T03:21:03.127Z,98313.51
2022-10-01T03:22:05.219Z,98318.08
2022-10-01T03:23:06.945Z,98316.95
2022-10-01T03:24:09.762Z,98317.65
2022-10-01T03:25:11.395Z,98320.02
2022-10-01T03:26:13.057Z,98320.41
2022-10-01T03:27:14.772Z,98322.98
2022-10-01T03:28:16.759Z,98318.58
2022-10-01T03:29:18.605Z,98320.73
2022-10-01T03:30:20.424Z,98325.45
2022-10-01T03:31:22.176Z,98322.77
2022-10-01T03:32:23.917Z,98323.20
2022-10-01T03:33:25.585Z,98326.90
2022-10-01T03:34:27.612Z,98323.91
2022-10-01T03:35:29.482Z,98320.09
2022-10-01T03:36:31.142Z,98314.59
2022-10-01T03:37:32.817Z,98318.62
2022-10-01T03:38:34.489Z,98316.67
2022-10-01T03:39:36.518Z,98313.38
2022-10-01T03:40:39.059Z,98317.02
2022-10-01T03:41:40.706Z,98313.22
2022-10-01T03:42:42.326Z,98314.23
2022-10-01T03:43:43.984Z,98315.96
2022-10-01T03:44:45.636Z,98317.68
2022-10-01T03:45:47.836Z,98312.83
2022-10-01T03:46:49.554Z,98312.45
2022-10-01T03:47:53.223Z,98311.86
2022-10-01T03:48:57.305Z,98310.89
2022-10-01T03:49:59.055Z,98309.04
2022-10-01T03:51:01.115Z,98307.02
2022-10-01T03:52:04.186Z,98303.63
2022-10-01T03:53:06.624Z,98305.77
2022-10-01T03:54:09.470Z,98304.34
2022-10-01T03:55:11.178Z,98304.86
2022-10-01T03:56:13.769Z,98300.91
2022-10-01T03:57:15.638Z,98295.96
2022-10-01T03:58:18.928Z,98295.64
2022-10-01T03:59:21.215Z,98293.30
2022-10-01T04:00:22.897Z,98294.09
2022-10-01T04:01:25.980Z,98292.95
2022-10-01T04:02:27.880Z,98292.67
2022-10-01T04:03:30.779Z,98292.73
2022-10-01T04:04:32.430Z,98294.27
2022-10-01T04:05:34.170Z,98294.25
2022-10-01T04:06:36.141Z,98291.00
2022-10-01T04:07:38.026Z,98294.42
2022-10-01T04:08:39.850Z,98289.66
2022-10-01T04:09:41.546Z,98291.67
2022-10-01T04:10:43.260Z,98292.68
2022-10-01T04:11:44.923Z,98288.30
2022-10-01T04:12:46.613Z,98287.73
2022-10-01T04:13:48.520Z,98285.25
2022-10-01T04:14:50.170Z,98285.77
2022-10-01T04:15:52.066Z,98286.42
2022-10-01T04:16:53.789Z,98286.84
2022-10-01T04:17:55.540Z,98287.67
2022-10-01T04:18:57.194Z,98286.34
2022-10-01T04:20:00.245Z,98284.52
2022-10-01T04:21:02.052Z,98286.09
2022-10-01T04:22:03.835Z,98282.91
2022-10-01T04:23:05.758Z,98284.42
2022-10-01T04:24:07.650Z,98287.34
2022-10-01T04:25:13.681Z,98286.63
2022-10-01T04:26:15.386Z,98284.89
2022-10-01T04:27:17.056Z,98286.21
2022-10-01T04:28:19.060Z,98284.92
2022-10-01T04:29:20.765Z,98281.36
2022-10-01T04:30:23.410Z,98285.17
2022-10-01T04:31:25.267Z,98287.55
2022-10-01T04:32:27.220Z,98287.08
2022-10-01T04:33:28.854Z,98286.43
2022-10-01T04:34:49.247Z,98287.98
2022-10-01T04:35:50.891Z,98287.56
2022-10-01T04:36:52.594Z,98284.66
2022-10-01T04:38:02.019Z,98289.48
2022-10-01T04:39:03.960Z,98287.59
2022-10-01T04:40:06.475Z,98288.44
2022-10-01T04:41:09.327Z,98287.45
2022-10-01T04:42:13.074Z,98290.45
2022-10-01T04:43:14.773Z,98292.39
2022-10-01T04:44:16.443Z,98291.77
2022-10-01T04:45:18.340Z,98289.96
2022-10-01T04:46:20.260Z,98291.05
2022-10-01T04:47:21.940Z,98291.73
2022-10-01T04:48:24.195Z,98294.70
2022-10-01T04:49:25.951Z,98294.01
2022-10-01T04:50:28.377Z,98294.66
2022-10-01T04:51:30.037Z,98297.90
2022-10-01T04:52:31.761Z,98297.38
2022-10-01T04:53:33.491Z,98297.88
2022-10-01T04:54:35.162Z,98299.56
2022-10-01T04:55:36.968Z,98299.10
2022-10-01T04:56:38.672Z,98299.45
2022-10-01T04:57:40.475Z,98300.39
2022-10-01T04:58:42.348Z,98297.51
2022-10-01T04:59:44.027Z,98298.55
2022-10-01T05:00:45.801Z,98294.86
2022-10-01T05:01:47.562Z,98297.84
2022-10-01T05:02:50.736Z,98296.89
2022-10-01T05:03:52.750Z,98299.27
2022-10-01T05:04:54.813Z,98298.33
2022-10-01T05:05:56.475Z,98300.55
2022-10-01T05:06:58.115Z,98302.33
2022-10-01T05:07:59.858Z,98302.90
2022-10-01T05:09:01.680Z,98302.68
2022-10-01T05:10:03.805Z,98302.15
2022-10-01T05:11:05.689Z,98304.33
2022-10-01T05:12:08.186Z,98300.04
2022-10-01T05:13:11.119Z,98298.92
2022-10-01T05:14:15.337Z,98298.98
2022-10-01T05:15:18.411Z,98298.31
2022-10-01T05:16:20.184Z,98298.42
2022-10-01T05:17:22.887Z,98300.21
2022-10-01T05:18:24.776Z,98299.95
2022-10-01T05:19:29.355Z,98301.09
2022-10-01T05:20:31.055Z,98303.80
2022-10-01T05:21:32.865Z,98300.37
2022-10-01T05:22:34.798Z,98300.51
2022-10-01T05:23:36.453Z,98303.33
2022-10-01T05:24:38.861Z,98301.87
2022-10-01T05:25:40.665Z,98303.28
2022-10-01T05:26:42.393Z,98300.71
2022-10-01T05:27:44.917Z,98302.41
2022-10-01T05:28:46.733Z,98301.20
2022-10-01T05:29:48.416Z,98300.23
2022-10-01T05:30:53.850Z,98296.90
2022-10-01T05:31:55.637Z,98295.89
2022-10-01T05:33:00.720Z,98294.80
2022-10-01T05:34:02.417Z,98294.20
2022-10-01T05:35:06.459Z,98292.80
2022-10-01T05:36:08.184Z,98290.06
2022-10-01T05:37:11.949Z,98289.85
2022-10-01T05:38:13.625Z,98290.16
2022-10-01T05:39:15.281Z,98284.90
2022-10-01T05:40:17.117Z,98284.27
2022-10-01T05:41:19.250Z,98286.34
2022-10-01T05:42:21.287Z,98283.70
2022-10-01T05:43:23.043Z,98283.71
2022-10-01T05:44:25.772Z,98283.21
2022-10-01T05:45:28.820Z,98279.83
2022-10-01T05:46:32.790Z,98275.90
2022-10-01T05:47:34.606Z,98276.10
2022-10-01T05:48:37.976Z,98275.02
2022-10-01T05:49:42.956Z,98276.27
2022-10-01T05:50:45.014Z,98274.38
2022-10-01T05:51:47.185Z,98275.29
2022-10-01T05:52:52.077Z,98273.98
2022-10-01T05:53:54.663Z,98271.12
2022-10-01T05:54:56.345Z,98270.74
2022-10-01T05:56:02.416Z,98272.10
2022-10-01T05:57:05.191Z,98273.94
2022-10-01T05:58:10.571Z,98276.06
2022-10-01T05:59:12.330Z,98276.31
2022-10-01T06:00:14.765Z,98266.84
2022-10-01T06:01:16.754Z,98273.25
2022-10-01T06:02:18.596Z,98276.59
2022-10-01T06:03:20.444Z,98273.69
2022-10-01T06:04:22.335Z,98273.69
2022-10-01T06:05:24.833Z,98275.10
2022-10-01T06:06:27.657Z,98269.56
2022-10-01T06:07:32.039Z,98268.29
2022-10-01T06:08:35.053Z,98265.82
2022-10-01T06:09:36.712Z,98266.11
2022-10-01T06:10:38.848Z,98265.31
2022-10-01T06:11:40.672Z,98264.09
2022-10-01T06:12:43.313Z,98266.95
2022-10-01T06:13:45.613Z,98267.40
2022-10-01T06:14:47.561Z,98269.82
2022-10-01T06:15:53.011Z,98269.45
2022-10-01T06:16:55.031Z,98268.55
2022-10-01T06:17:56.976Z,98272.16
2022-10-01T06:18:58.721Z,98269.42
2022-10-01T06:20:00.941Z,98269.97
2022-10-01T06:21:03.302Z,98269.64
2022-10-01T06:22:05.051Z,98269.65
2022-10-01T06:23:12.207Z,98266.95
2022-10-01T06:24:14.093Z,98268.69
2022-10-01T06:25:15.942Z,98265.89
2022-10-01T06:26:19.392Z,98267.71
2022-10-01T06:27:27.077Z,98270.35
2022-10-01T06:28:29.138Z,98266.70
2022-10-01T06:29:30.819Z,98268.41
2022-10-01T06:30:36.391Z,98262.55
2022-10-01T06:31:38.609Z,98264.23
2022-10-01T06:32:43.237Z,98264.27
2022-10-01T06:33:45.193Z,98260.46
2022-10-01T06:34:47.018Z,98260.98
2022-10-01T06:35:51.852Z,98262.23
2022-10-01T06:36:53.505Z,98263.20
2022-10-01T06:37:55.349Z,98262.44
2022-10-01T06:38:57.811Z,98262.77
2022-10-01T06:40:00.026Z,98262.11
2022-10-01T06:41:03.813Z,98262.44
2022-10-01T06:42:05.667Z,98261.41
2022-10-01T06:43:08.416Z,98264.76
2022-10-01T06:44:10.821Z,98263.90
2022-10-01T06:45:12.719Z,98266.55
2022-10-01T06:46:14.524Z,98264.81
2022-10-01T06:47:16.506Z,98263.96
2022-10-01T06:48:20.206Z,98267.94
2022-10-01T06:49:22.777Z,98268.38
2022-10-01T06:50:25.990Z,98263.36
2022-10-01T06:51:46.209Z,98264.27
2022-10-01T06:52:50.856Z,98268.69
2022-10-01T06:53:52.716Z,98268.80
2022-10-01T06:54:54.479Z,98267.06
2022-10-01T06:55:56.470Z,98266.05
2022-10-01T06:56:58.266Z,98267.89
2022-10-01T06:58:01.364Z,98265.10
2022-10-01T06:59:03.962Z,98260.16
2022-10-01T07:00:06.849Z,98267.16
2022-10-01T07:01:09.892Z,98265.66
2022-10-01T07:02:30.195Z,98268.73
2022-10-01T07:03:32.225Z,98271.39
2022-10-01T07:04:34.083Z,98273.73
2022-10-01T07:05:35.779Z,98272.17
2022-10-01T07:06:37.411Z,98277.09
2022-10-01T07:07:39.630Z,98276.27
2022-10-01T07:08:41.596Z,98274.39
2022-10-01T07:09:43.505Z,98276.60
2022-10-01T07:10:45.667Z,98278.96
2022-10-01T07:11:47.499Z,98280.63
2022-10-01T07:12:50.093Z,98281.45
2022-10-01T07:13:54.481Z,98280.16
2022-10-01T07:14:56.948Z,98276.28
2022-10-01T07:15:58.687Z,98279.41
2022-10-01T07:17:00.711Z,98276.81
2022-10-01T07:18:02.792Z,98283.44
2022-10-01T07:19:04.576Z,98287.22
2022-10-01T07:20:06.683Z,98283.88
2022-10-01T07:21:08.539Z,98283.98
2022-10-01T07:22:10.508Z,98287.91
2022-10-01T07:23:14.534Z,98289.52
2022-10-01T07:24:16.491Z,98287.36
2022-10-01T07:25:18.348Z,98288.30
2022-10-01T07:26:20.261Z,98286.30
2022-10-01T07:27:21.917Z,98286.88
2022-10-01T07:28:25.639Z,98283.92
2022-10-01T07:29:27.880Z,98285.36
2022-10-01T07:30:30.042Z,98284.63
2022-10-01T07:31:33.121Z,98283.60
2022-10-01T07:32:35.442Z,98287.69
2022-10-01T07:33:38.153Z,98285.54
2022-10-01T07:34:40.362Z,98283.45
2022-10-01T07:35:42.330Z,98281.98
2022-10-01T07:36:45.472Z,98281.88
2022-10-01T07:37:48.408Z,98282.09
2022-10-01T07:38:51.267Z,98281.77
2022-10-01T07:39:53.863Z,98278.96
2022-10-01T07:40:55.557Z,98276.31
2022-10-01T07:41:57.776Z,98277.71
2022-10-01T07:42:59.470Z,98278.77
2022-10-01T07:44:03.399Z,98278.13
2022-10-01T07:45:06.690Z,98280.23
2022-10-01T07:46:08.551Z,98277.25
2022-10-01T07:47:12.367Z,98281.52
2022-10-01T07:48:17.285Z,98281.16
2022-10-01T07:49:19.122Z,98276.09
2022-10-01T07:50:20.929Z,98278.73
2022-10-01T07:51:23.546Z,98277.90
2022-10-01T07:52:25.278Z,98280.77
2022-10-01T07:53:27.610Z,98278.06
2022-10-01T07:54:29.348Z,98276.29
2022-10-01T07:55:32.834Z,98276.30
2022-10-01T07:56:34.529Z,98275.87
2022-10-01T07:57:36.516Z,98271.38
2022-10-01T07:58:38.151Z,98269.11
2022-10-01T07:59:40.981Z,98266.85
2022-10-01T08:00:43.510Z,98263.23
2022-10-01T08:01:49.697Z,98263.05
2022-10-01T08:02:53.942Z,98263.95
2022-10-01T08:03:55.712Z,98261.92
2022-10-01T08:05:15.773Z,98258.63
2022-10-01T08:06:23.325Z,98255.16
2022-10-01T08:07:27.289Z,98253.39
2022-10-01T08:08:31.131Z,98255.73
2022-10-01T08:09:33.062Z,98254.14
2022-10-01T08:10:37.427Z,98256.81
2022-10-01T08:11:39.087Z,98255.13
2022-10-01T08:12:42.817Z,98253.88
2022-10-01T08:13:45.833Z,98254.73
2022-10-01T08:14:47.930Z,98249.09
2022-10-01T08:15:53.304Z,98247.09
2022-10-01T08:16:56.284Z,98246.10
2022-10-01T08:18:04.098Z,98241.50
2022-10-01T08:19:08.027Z,98244.40
2022-10-01T08:20:12.883Z,98243.20
2022-10-01T08:21:14.517Z,98240.98
2022-10-01T08:22:16.388Z,98238.22
2022-10-01T08:23:18.041Z,98240.98
2022-10-01T08:24:20.218Z,98236.59
2022-10-01T08:25:21.900Z,98235.38
2022-10-01T08:26:23.559Z,98231.27
2022-10-01T08:27:26.500Z,98232.51
2022-10-01T08:28:30.173Z,98231.46
2022-10-01T08:29:33.902Z,98234.16
2022-10-01T08:30:38.485Z,98231.66
2022-10-01T08:31:41.125Z,98233.41
2022-10-01T08:32:42.830Z,98233.86
2022-10-01T08:33:44.781Z,98234.95
2022-10-01T08:34:48.016Z,98235.54
2022-10-01T08:35:49.943Z,98236.84
2022-10-01T08:36:51.964Z,98233.88
2022-10-01T08:37:56.581Z,98233.82
2022-10-01T08:38:59.124Z,98236.66
2022-10-01T08:40:01.054Z,98233.61
2022-10-01T08:41:21.281Z,98231.24
2022-10-01T08:42:52.541Z,98231.56
2022-10-01T08:43:54.991Z,98230.66
2022-10-01T08:44:57.745Z,98232.05
2022-10-01T08:46:26.131Z,98231.19
2022-10-01T08:47:39.639Z,98230.82
2022-10-01T08:48:59.395Z,98229.63
2022-10-01T08:50:29.897Z,98230.27
2022-10-01T08:51:57.617Z,98231.36
2022-10-01T08:53:04.832Z,98230.32
2022-10-01T08:54:37.522Z,98227.34
2022-10-01T08:55:41.621Z,98226.56
2022-10-01T08:56:47.595Z,98222.71
2022-10-01T08:58:03.582Z,98222.29
2022-10-01T08:59:32.887Z,98224.71
2022-10-01T09:00:41.838Z,98220.48
2022-10-01T09:01:43.555Z,98217.95
2022-10-01T09:02:47.825Z,98221.52
2022-10-01T09:03:50.611Z,98220.55
2022-10-01T09:05:01.225Z,98217.37
2022-10-01T09:06:19.462Z,98216.66
2022-10-01T09:08:09.545Z,98211.73
2022-10-01T09:09:41.323Z,98206.66
2022-10-01T09:10:53.183Z,98202.52
2022-10-01T09:12:30.408Z,98201.41
2022-10-01T09:13:54.420Z,98197.83
2022-10-01T09:15:22.421Z,98193.41
2022-10-01T09:16:48.589Z,98196.70
2022-10-01T09:18:21.955Z,98196.16
2022-10-01T09:19:57.621Z,98195.55
2022-10-01T09:20:59.336Z,98188.21
2022-10-01T09:22:10.986Z,98191.69
2022-10-01T09:23:29.737Z,98192.19
2022-10-01T09:24:45.531Z,98189.57
2022-10-01T09:25:50.422Z,98188.57
2022-10-01T09:26:52.063Z,98187.33
2022-10-01T09:28:07.444Z,98185.02
2022-10-01T09:29:17.371Z,98187.58
2022-10-01T09:30:21.885Z,98185.19
2022-10-01T09:31:41.060Z,98183.27
2022-10-01T09:32:53.878Z,98182.43
2022-10-01T09:34:10.963Z,98179.23
2022-10-01T09:35:23.571Z,98177.66
2022-10-01T09:36:51.808Z,98178.02
2022-10-01T09:38:00.212Z,98182.52
2022-10-01T09:39:30.426Z,98183.17
2022-10-01T09:40:50.108Z,98180.20
2022-10-01T09:41:52.126Z,98177.73
2022-10-01T09:42:53.872Z,98173.35
2022-10-01T09:43:56.852Z,98174.89
2022-10-01T09:44:59.076Z,98167.96
2022-10-01T09:46:05.241Z,98167.06
2022-10-01T09:47:20.599Z,98166.53
2022-10-01T09:48:24.886Z,98163.63
2022-10-01T09:49:46.120Z,98162.05
2022-10-01T09:50:58.960Z,98158.73
2022-10-01T09:52:13.886Z,98153.14
2022-10-01T09:53:26.328Z,98147.87
2022-10-01T09:54:33.700Z,98148.85
2022-10-01T09:55:42.967Z,98146.77
2022-10-01T09:56:55.082Z,98145.52
2022-10-01T09:58:16.434Z,98144.02
2022-10-01T09:59:26.978Z,98143.69
2022-10-01T10:00:28.754Z,98149.30
2022-10-01T10:01:45.205Z,98148.89
2022-10-01T10:02:49.874Z,98150.77
2022-10-01T10:03:57.330Z,98143.55
2022-10-01T10:05:04.286Z,98139.77
2022-10-01T10:06:06.652Z,98139.23
2022-10-01T10:07:17.696Z,98138.41
2022-10-01T10:08:28.322Z,98132.15
2022-10-01T10:09:33.055Z,98133.76
2022-10-01T10:10:39.515Z,98129.91
2022-10-01T10:11:42.987Z,98125.62
2022-10-01T10:12:45.941Z,98124.88
2022-10-01T10:13:54.306Z,98122.39
2022-10-01T10:14:59.022Z,98118.33
2022-10-01T10:16:20.343Z,98120.05
2022-10-01T10:17:23.119Z,98119.12
2022-10-01T10:18:35.575Z,98115.69
2022-10-01T10:19:37.696Z,98117.63
2022-10-01T10:20:50.905Z,98111.61
2022-10-01T10:22:10.105Z,98112.20
2022-10-01T10:23:16.835Z,98110.91
2022-10-01T10:24:33.836Z,98111.70
2022-10-01T10:25:35.566Z,98106.36
2022-10-01T10:26:41.106Z,98107.50
2022-10-01T10:27:55.810Z,98103.70
2022-10-01T10:28:59.793Z,98107.42
2022-10-01T10:30:13.569Z,98101.45
2022-10-01T10:31:26.014Z,98097.59
2022-10-01T10:32:29.213Z,98097.22
2022-10-01T10:33:31.078Z,98094.89
2022-10-01T10:34:41.066Z,98090.77
2022-10-01T10:35:43.429Z,98086.27
2022-10-01T10:36:47.010Z,98077.73
2022-10-01T10:37:53.575Z,98072.86
2022-10-01T10:38:58.445Z,98076.62
2022-10-01T10:40:00.691Z,98074.90
2022-10-01T10:41:03.915Z,98076.70
2022-10-01T10:42:07.535Z,98081.05
2022-10-01T10:43:22.880Z,98080.34
2022-10-01T10:44:31.964Z,98076.65
2022-10-01T10:45:42.493Z,98071.70
2022-10-01T10:46:46.451Z,98072.21
2022-10-01T10:47:52.726Z,98071.64
2022-10-01T10:49:04.739Z,98073.57
2022-10-01T10:50:27.136Z,98072.92
2022-10-01T10:51:28.937Z,98073.94
2022-10-01T10:52:36.315Z,98070.88
2022-10-01T10:53:46.070Z,98070.13
2022-10-01T10:54:50.767Z,98069.40
2022-10-01T10:55:56.080Z,98069.91
2022-10-01T10:57:02.746Z,98068.98
2022-10-01T10:58:16.650Z,98062.84
2022-10-01T10:59:18.513Z,98062.46
2022-10-01T11:00:24.144Z,98060.34
2022-10-01T11:01:28.973Z,98055.01
2022-10-01T11:02:33.403Z,98055.81
2022-10-01T11:03:38.497Z,98051.42
2022-10-01T11:04:44.222Z,98053.44
2022-10-01T11:05:45.916Z,98052.52
2022-10-01T11:06:55.933Z,98052.52
2022-10-01T11:08:02.925Z,98053.45
2022-10-01T11:09:11.007Z,98052.75
2022-10-01T11:10:32.712Z,98056.60
2022-10-01T11:11:51.171Z,98049.03
2022-10-01T11:13:26.875Z,98047.27
2022-10-01T11:15:02.850Z,98040.67
2022-10-01T11:16:40.537Z,98038.81
2022-10-01T11:18:17.843Z,98037.83
2022-10-01T11:19:22.033Z,98031.20
2022-10-01T11:20:36.696Z,98020.98
2022-10-01T11:22:13.316Z,98022.98
2022-10-01T11:23:39.427Z,98024.01
2022-10-01T11:25:11.657Z,98025.02
2022-10-01T11:26:21.882Z,98017.47
2022-10-01T11:27:36.156Z,98014.73
2022-10-01T11:28:54.588Z,98017.24
2022-10-01T11:30:09.536Z,98012.79
2022-10-01T11:31:35.519Z,98011.20
2022-10-01T11:33:23.176Z,98005.63
2022-10-01T11:34:28.180Z,98001.34
2022-10-01T11:35:55.421Z,98001.39
2022-10-01T11:37:10.748Z,97997.73
2022-10-01T11:38:37.899Z,97996.36
2022-10-01T11:39:45.087Z,97996.05
2022-10-01T11:40:55.977Z,97992.98
2022-10-01T11:42:24.675Z,97998.78
2022-10-01T11:43:38.808Z,97995.70
2022-10-01T11:45:00.707Z,97993.14
2022-10-01T11:46:19.253Z,97994.55
2022-10-01T11:47:30.400Z,97986.93
2022-10-01T11:48:41.326Z,97984.98
2022-10-01T11:49:50.129Z,97984.75
2022-10-01T11:51:00.222Z,97982.13
2022-10-01T11:52:34.253Z,97981.97
2022-10-01T11:53:50.358Z,97983.45
2022-10-01T11:55:31.897Z,97978.45
2022-10-01T11:57:07.432Z,97978.77
2022-10-01T11:58:44.218Z,97979.05
2022-10-01T12:00:00.058Z,97975.05
2022-10-01T12:01:14.232Z,97981.50
2022-10-01T12:02:31.571Z,97973.71
2022-10-01T12:03:51.088Z,97973.31
2022-10-01T12:05:00.039Z,97972.74
2022-10-01T12:06:09.373Z,97973.13
2022-10-01T12:07:39.979Z,97969.39
2022-10-01T12:08:50.031Z,97967.89
2022-10-01T12:10:07.488Z,97967.08
2022-10-01T12:11:21.013Z,97962.71
2022-10-01T12:12:35.216Z,97962.70
2022-10-01T12:13:45.584Z,97957.79
2022-10-01T12:15:23.008Z,97962.73
2022-10-01T12:16:51.007Z,97955.94
2022-10-01T12:18:01.323Z,97953.69
2022-10-01T12:19:12.103Z,97953.61
2022-10-01T12:20:24.968Z,97950.65
2022-10-01T12:21:35.032Z,97950.82
2022-10-01T12:22:41.286Z,97948.83
2022-10-01T12:23:54.535Z,97946.80
2022-10-01T12:24:56.215Z,97948.08
2022-10-01T12:26:50.180Z,97948.73
2022-10-01T12:28:12.492Z,97948.80
2022-10-01T12:29:22.826Z,97943.15
2022-10-01T12:30:31.977Z,97946.66
2022-10-01T12:31:51.431Z,97944.59
2022-10-01T12:33:05.527Z,97946.58
2022-10-01T12:34:22.536Z,97946.98
2022-10-01T12:35:42.301Z,97944.50
2022-10-01T12:37:21.938Z,97943.69
2022-10-01T12:38:41.183Z,97935.50
2022-10-01T12:40:05.827Z,97937.55
2022-10-01T12:41:37.558Z,97937.42
2022-10-01T12:43:01.938Z,97938.40
2022-10-01T12:44:08.378Z,97933.69
2022-10-01T12:45:49.746Z,97936.08
2022-10-01T12:47:28.027Z,97935.83
2022-10-01T12:48:48.547Z,97931.42
2022-10-01T12:50:18.036Z,97928.74
2022-10-01T12:51:22.469Z,97931.34
2022-10-01T12:53:00.504Z,97927.88
2022-10-01T12:54:17.008Z,97926.73
2022-10-01T12:55:40.736Z,97922.72
2022-10-01T12:56:57.524Z,97919.60
2022-10-01T12:58:31.305Z,97923.39
2022-10-01T12:59:43.388Z,97924.08
2022-10-01T13:01:13.150Z,97919.40
2022-10-01T13:02:46.214Z,97919.81
2022-10-01T13:04:09.932Z,97913.65
2022-10-01T13:05:39.123Z,97913.40
2022-10-01T13:07:17.337Z,97911.27
2022-10-01T13:08:47.931Z,97912.63
2022-10-01T13:10:06.101Z,97912.04
2022-10-01T13:11:20.772Z,97911.38
2022-10-01T13:12:41.003Z,97907.86
2022-10-01T13:13:43.504Z,97907.28
2022-10-01T13:14:46.995Z,97906.17
2022-10-01T13:16:00.249Z,97902.61
2022-10-01T13:17:18.627Z,97900.75
2022-10-01T13:18:33.032Z,97895.40
2022-10-01T13:19:51.184Z,97896.16
2022-10-01T13:21:11.424Z,97893.25